createdAt,value
2022-08-19T00:02:03.574Z,65.06
2022-08-19T00:04:37.375Z,65.09
2022-08-19T00:07:07.223Z,65.36
2022-08-19T00:09:34.462Z,64.25
2022-08-19T00:12:02.198Z,63.39
2022-08-19T00:14:32.205Z,63.55
2022-08-19T00:16:59.954Z,63.45
2022-08-19T00:19:27.026Z,63.22
2022-08-19T00:21:54.391Z,63.07
2022-08-19T00:24:21.616Z,63.47
2022-08-19T00:26:49.252Z,63.30
2022-08-19T00:29:19.829Z,63.52
2022-08-19T00:31:47.420Z,63.24
2022-08-19T00:34:15.881Z,63.52
2022-08-19T00:36:43.890Z,63.37
2022-08-19T00:39:12.041Z,63.74
2022-08-19T00:41:39.335Z,63.28
2022-08-19T00:44:14.370Z,62.96
2022-08-19T00:46:44.708Z,63.28
2022-08-19T00:49:33.845Z,63.27
2022-08-19T00:52:10.072Z,63.31
2022-08-19T00:54:38.557Z,62.72
2022-08-19T00:57:10.255Z,62.69
2022-08-19T01:00:01.185Z,63.01
2022-08-19T01:02:28.927Z,62.87
2022-08-19T01:04:56.435Z,63.24
2022-08-19T01:07:23.593Z,63.19
2022-08-19T01:09:51.328Z,63.06
2022-08-19T01:12:19.308Z,62.92
2022-08-19T01:14:48.848Z,63.27
2022-08-19T01:17:17.116Z,62.88
2022-08-19T01:19:47.593Z,63.51
2022-08-19T01:22:27.869Z,63.26
2022-08-19T01:24:58.326Z,63.97
2022-08-19T01:27:26.526Z,63.70
2022-08-19T01:29:56.644Z,64.34
2022-08-19T01:32:33.840Z,64.41
2022-08-19T01:35:04.185Z,64.32
2022-08-19T01:37:43.236Z,64.08
2022-08-19T01:40:11.311Z,64.02
2022-08-19T01:42:38.284Z,64.15
2022-08-19T01:45:08.355Z,63.59
2022-08-19T01:47:38.901Z,64.36
2022-08-19T01:52:44.362Z,64.24
2022-08-19T01:55:21.371Z,64.28
2022-08-19T01:57:58.815Z,64.37
2022-08-19T02:00:29.230Z,64.19
2022-08-19T02:02:56.290Z,64.45
2022-08-19T02:05:23.953Z,64.44
2022-08-19T02:07:51.089Z,63.97
2022-08-19T02:10:22.419Z,63.86
2022-08-19T02:12:50.597Z,64.01
2022-08-19T02:15:20.391Z,64.24
2022-08-19T02:17:48.117Z,64.26
2022-08-19T02:20:16.317Z,64.65
2022-08-19T02:22:44.182Z,63.76
2022-08-19T02:25:13.452Z,64.66
2022-08-19T02:27:41.853Z,64.86
2022-08-19T02:30:14.466Z,64.51
2022-08-19T02:32:44.597Z,64.71
2022-08-19T02:35:13.866Z,65.18
2022-08-19T02:38:01.457Z,65.39
2022-08-19T02:40:30.407Z,65.59
2022-08-19T02:42:58.177Z,65.21
2022-08-19T02:45:25.175Z,65.32
2022-08-19T02:47:52.048Z,65.90
2022-08-19T02:50:19.541Z,65.39
2022-08-19T02:52:46.505Z,65.15
2022-08-19T02:55:13.464Z,64.75
2022-08-19T02:57:40.334Z,64.91
2022-08-19T03:00:10.564Z,64.56
2022-08-19T03:02:37.412Z,64.89
2022-08-19T03:05:06.807Z,64.42
2022-08-19T03:07:33.685Z,64.81
2022-08-19T03:10:00.630Z,64.28
2022-08-19T03:12:27.707Z,64.45
2022-08-19T03:14:54.633Z,64.53
2022-08-19T03:17:21.702Z,64.87
2022-08-19T03:19:48.580Z,65.16
2022-08-19T03:22:15.498Z,65.23
2022-08-19T03:24:42.515Z,65.77
2022-08-19T03:27:09.384Z,65.95
2022-08-19T03:29:43.847Z,65.98
2022-08-19T03:32:24.457Z,66.41
2022-08-19T03:34:58.366Z,66.01
2022-08-19T03:37:25.331Z,66.20
2022-08-19T03:39:52.958Z,66.42
2022-08-19T03:42:38.202Z,66.71
2022-08-19T03:45:08.375Z,66.43
2022-08-19T03:47:35.314Z,66.39
2022-08-19T03:50:03.053Z,66.83
2022-08-19T03:52:29.912Z,66.00
2022-08-19T03:54:56.985Z,66.39
2022-08-19T03:57:23.844Z,66.07
2022-08-19T04:00:12.541Z,66.12
2022-08-19T04:02:42.866Z,66.43
2022-08-19T04:05:27.773Z,66.33
2022-08-19T04:07:55.975Z,66.37
2022-08-19T04:10:23.377Z,66.78
2022-08-19T04:12:50.351Z,66.73
2022-08-19T04:15:18.106Z,67.23
2022-08-19T04:17:45.008Z,66.84
2022-08-19T04:20:12.055Z,67.17
2022-08-19T04:22:39.089Z,66.82
2022-08-19T04:25:06.463Z,66.92
2022-08-19T04:27:34.341Z,67.08
2022-08-19T04:30:01.169Z,66.67
2022-08-19T04:32:28.087Z,67.00
2022-08-19T04:35:03.192Z,66.48
2022-08-19T04:37:44.789Z,66.35
2022-08-19T04:40:30.921Z,66.46
2022-08-19T04:42:57.830Z,66.38
2022-08-19T04:45:24.709Z,65.92
2022-08-19T04:48:26.735Z,65.33
2022-08-19T04:50:47.191Z,65.37
2022-08-19T04:53:14.073Z,65.13
2022-08-19T04:55:43.356Z,65.40
2022-08-19T04:58:10.254Z,65.14
2022-08-19T05:00:40.737Z,64.56
2022-08-19T05:03:08.364Z,64.77
2022-08-19T05:05:44.566Z,64.14
2022-08-19T05:08:31.293Z,64.23
2022-08-19T05:10:58.978Z,63.95
2022-08-19T05:13:26.143Z,64.04
2022-08-19T05:15:59.707Z,64.18
2022-08-19T05:18:45.969Z,63.82
2022-08-19T05:21:35.792Z,63.22
2022-08-19T05:24:03.072Z,63.08
2022-08-19T05:26:30.183Z,62.79
2022-08-19T05:28:57.135Z,62.87
2022-08-19T05:31:24.016Z,62.46
2022-08-19T05:33:51.376Z,62.56
2022-08-19T05:36:19.892Z,61.94
2022-08-19T05:38:48.434Z,61.63
2022-08-19T05:41:16.340Z,60.53
2022-08-19T05:43:43.375Z,59.07
2022-08-19T05:46:27.595Z,57.88
2022-08-19T05:48:57.463Z,56.99
2022-08-19T05:51:29.003Z,56.54
2022-08-19T05:53:56.305Z,55.62
2022-08-19T05:56:23.179Z,55.54
2022-08-19T05:58:50.144Z,55.21
2022-08-19T06:01:19.410Z,54.23
2022-08-19T06:03:48.499Z,52.92
2022-08-19T06:06:17.783Z,52.02
2022-08-19T06:08:49.333Z,51.37
2022-08-19T06:11:45.502Z,50.43
2022-08-19T06:14:18.084Z,49.69
2022-08-19T06:16:46.070Z,50.03
2022-08-19T06:19:17.721Z,50.22
2022-08-19T06:21:48.721Z,50.34
2022-08-19T06:24:19.805Z,50.83
2022-08-19T06:26:51.413Z,50.79
2022-08-19T06:29:24.250Z,49.71
2022-08-19T06:31:55.421Z,48.11
2022-08-19T06:34:22.380Z,47.00
2022-08-19T06:36:52.033Z,46.50
2022-08-19T06:39:25.079Z,46.37
2022-08-19T06:41:58.668Z,46.29
2022-08-19T06:44:29.850Z,45.44
2022-08-19T06:46:59.047Z,43.92
2022-08-19T06:49:28.529Z,41.94
2022-08-19T06:51:57.651Z,40.26
2022-08-19T06:54:24.555Z,39.22
2022-08-19T06:57:02.839Z,38.89
2022-08-19T06:59:33.439Z,40.35
2022-08-19T07:02:06.390Z,41.53
2022-08-19T07:04:35.317Z,42.06
2022-08-19T07:07:19.893Z,42.58
2022-08-19T07:09:58.296Z,42.82
2022-08-19T07:12:35.849Z,41.50
2022-08-19T07:15:06.989Z,41.11
2022-08-19T07:17:34.507Z,42.02
2022-08-19T07:20:05.638Z,41.74
2022-08-19T07:22:36.788Z,41.26
2022-08-19T07:25:06.212Z,40.60
2022-08-19T07:27:33.592Z,39.88
2022-08-19T07:30:01.476Z,38.54
2022-08-19T07:32:28.429Z,35.62
2022-08-19T07:34:56.948Z,33.28
2022-08-19T07:37:32.533Z,32.82
2022-08-19T07:40:01.749Z,33.04
2022-08-19T07:42:30.543Z,32.62
2022-08-19T07:44:58.731Z,33.75
2022-08-19T07:47:47.816Z,33.27
2022-08-19T07:50:12.782Z,34.12
2022-08-19T07:52:40.474Z,33.10
2022-08-19T07:55:40.380Z,30.40
2022-08-19T07:57:57.066Z,29.67
2022-08-19T08:00:24.705Z,31.92
2022-08-19T08:02:56.204Z,31.86
2022-08-19T08:05:44.407Z,32.58
2022-08-19T08:08:33.091Z,33.33
2022-08-19T08:11:01.489Z,32.49
2022-08-19T08:13:29.159Z,31.12
2022-08-19T08:15:57.607Z,30.24
2022-08-19T08:18:27.633Z,28.09
2022-08-19T08:20:58.685Z,27.01
2022-08-19T08:23:27.074Z,25.83
2022-08-19T08:25:58.178Z,26.20
2022-08-19T08:28:29.745Z,26.33
2022-08-19T08:30:58.483Z,27.56
2022-08-19T08:33:34.628Z,29.07
2022-08-19T08:36:09.429Z,28.84
2022-08-19T08:38:41.781Z,26.92
2022-08-19T08:41:34.844Z,25.59
2022-08-19T08:44:05.305Z,25.19
2022-08-19T08:46:47.109Z,24.06
2022-08-19T08:49:39.615Z,22.00
2022-08-19T08:52:17.118Z,24.43
2022-08-19T08:54:49.074Z,23.87
2022-08-19T08:57:45.068Z,24.13
2022-08-19T09:00:19.220Z,22.94
2022-08-19T09:02:50.726Z,22.01
2022-08-19T09:05:22.222Z,22.51
2022-08-19T09:08:14.813Z,23.66
2022-08-19T09:10:55.709Z,25.94
2022-08-19T09:14:05.262Z,29.51
2022-08-19T09:16:32.141Z,32.71
2022-08-19T09:19:06.452Z,29.06
2022-08-19T09:21:35.479Z,29.82
2022-08-19T09:24:05.407Z,30.13
2022-08-19T09:26:35.502Z,33.00
2022-08-19T09:29:15.753Z,35.23
2022-08-19T09:31:44.695Z,36.66
2022-08-19T09:34:21.294Z,34.94
2022-08-19T09:36:54.032Z,33.90
2022-08-19T09:39:22.046Z,30.42
2022-08-19T09:41:50.737Z,29.07
2022-08-19T09:44:18.900Z,26.19
2022-08-19T09:46:47.946Z,26.29
2022-08-19T09:49:18.310Z,23.54
2022-08-19T09:51:50.375Z,22.43
2022-08-19T09:54:22.438Z,23.09
2022-08-19T09:56:53.179Z,24.42
2022-08-19T09:59:20.273Z,24.53
2022-08-19T10:01:47.638Z,24.42
2022-08-19T10:04:20.209Z,22.34
2022-08-19T10:06:53.680Z,21.05
2022-08-19T10:09:33.825Z,21.50
2022-08-19T10:12:03.989Z,23.23
2022-08-19T10:14:31.726Z,26.29
2022-08-19T10:16:59.155Z,25.03
2022-08-19T10:19:26.592Z,22.96
2022-08-19T10:21:55.862Z,22.43
2022-08-19T10:24:28.767Z,24.21
2022-08-19T10:26:59.158Z,25.16
2022-08-19T10:29:32.256Z,27.27
2022-08-19T10:32:09.749Z,30.44
2022-08-19T10:34:48.664Z,30.17
2022-08-19T10:37:28.920Z,31.05
2022-08-19T10:39:58.509Z,31.30
2022-08-19T10:42:25.492Z,33.33
2022-08-19T10:44:52.398Z,34.76
2022-08-19T10:47:25.591Z,35.90
2022-08-19T10:50:13.586Z,37.96
2022-08-19T10:52:49.874Z,39.21
2022-08-19T10:55:39.889Z,38.49
2022-08-19T10:58:16.830Z,38.36
2022-08-19T11:00:44.758Z,38.10
2022-08-19T11:03:12.779Z,37.75
2022-08-19T11:05:40.687Z,36.64
2022-08-19T11:08:23.303Z,36.45
2022-08-19T11:10:56.212Z,36.76
2022-08-19T11:13:24.074Z,36.65
2022-08-19T11:16:07.451Z,37.89
2022-08-19T11:18:48.553Z,37.89
2022-08-19T11:21:22.005Z,38.65
2022-08-19T11:23:52.231Z,39.21
2022-08-19T11:26:20.815Z,38.26
2022-08-19T11:28:48.321Z,37.80
2022-08-19T11:31:20.092Z,37.50
2022-08-19T11:33:48.117Z,37.46
2022-08-19T11:36:16.914Z,37.28
2022-08-19T11:38:44.457Z,37.29
2022-08-19T11:41:11.664Z,36.31
2022-08-19T11:43:40.467Z,36.13
2022-08-19T11:46:10.829Z,36.45
2022-08-19T11:48:37.922Z,36.55
2022-08-19T11:51:09.583Z,35.65
2022-08-19T11:53:37.521Z,36.75
2022-08-19T11:56:08.423Z,37.63
2022-08-19T11:58:36.304Z,37.49
2022-08-19T12:01:08.338Z,37.46
2022-08-19T12:03:35.513Z,36.87
2022-08-19T12:06:20.974Z,35.75
2022-08-19T12:08:48.402Z,35.88
2022-08-19T12:11:15.991Z,36.09
2022-08-19T12:13:45.847Z,36.18
2022-08-19T12:16:16.613Z,36.13
2022-08-19T12:18:47.196Z,36.02
2022-08-19T12:21:16.126Z,35.43
2022-08-19T12:23:44.481Z,35.21
2022-08-19T12:26:11.957Z,34.85
2022-08-19T12:28:39.684Z,35.54
2022-08-19T12:31:53.669Z,34.40
2022-08-19T12:34:21.240Z,33.92
2022-08-19T12:36:50.118Z,33.55
2022-08-19T12:39:17.101Z,33.06
2022-08-19T12:41:51.468Z,33.35
2022-08-19T12:44:28.967Z,32.94
2022-08-19T12:46:57.874Z,32.76
2022-08-19T12:49:52.172Z,32.43
2022-08-19T12:52:16.397Z,32.88
2022-08-19T12:54:44.170Z,33.14
2022-08-19T12:57:12.115Z,34.09
2022-08-19T12:59:40.014Z,34.38
2022-08-19T13:02:09.947Z,34.79
2022-08-19T13:04:38.785Z,34.92
2022-08-19T13:07:05.745Z,34.59
2022-08-19T13:09:32.613Z,33.94
2022-08-19T13:12:00.093Z,33.96
2022-08-19T13:14:27.123Z,34.53
2022-08-19T13:16:54.051Z,33.82
2022-08-19T13:19:24.027Z,33.60
2022-08-19T13:21:51.937Z,33.58
2022-08-19T13:24:27.706Z,33.99
2022-08-19T13:27:01.792Z,33.50
2022-08-19T13:29:47.615Z,33.20
2022-08-19T13:32:32.986Z,32.92
2022-08-19T13:34:59.895Z,33.10
2022-08-19T13:37:44.800Z,32.36
2022-08-19T13:40:19.315Z,32.59
2022-08-19T13:42:49.087Z,32.92
2022-08-19T13:45:25.924Z,32.54
2022-08-19T13:47:59.184Z,32.06
2022-08-19T13:50:32.231Z,32.41
2022-08-19T13:52:59.802Z,33.03
2022-08-19T13:55:27.799Z,32.52
2022-08-19T13:57:58.601Z,32.71
2022-08-19T14:00:30.258Z,32.06
2022-08-19T14:02:58.417Z,32.44
2022-08-19T14:05:27.836Z,32.41
2022-08-19T14:07:55.091Z,32.39
2022-08-19T14:10:24.070Z,32.19
2022-08-19T14:12:56.374Z,32.19
2022-08-19T14:15:24.301Z,32.32
2022-08-19T14:17:51.942Z,32.16
2022-08-19T14:20:19.307Z,32.13
2022-08-19T14:22:47.746Z,32.75
2022-08-19T14:25:24.891Z,32.37
2022-08-19T14:27:52.173Z,32.45
2022-08-19T14:30:28.426Z,32.53
2022-08-19T14:33:00.797Z,32.34
2022-08-19T14:35:29.885Z,32.50
2022-08-19T14:37:58.768Z,32.46
2022-08-19T14:40:28.884Z,32.47
2022-08-19T14:43:02.044Z,32.77
2022-08-19T14:45:31.417Z,32.62
2022-08-19T14:48:01.141Z,32.65
2022-08-19T14:50:28.390Z,32.41
2022-08-19T14:53:12.330Z,32.04
2022-08-19T14:55:43.983Z,32.31
2022-08-19T14:58:29.217Z,32.50
2022-08-19T15:01:00.196Z,32.45
2022-08-19T15:03:27.680Z,32.44
2022-08-19T15:05:55.054Z,33.08
2022-08-19T15:08:25.588Z,33.01
2022-08-19T15:10:53.744Z,32.54
2022-08-19T15:13:20.705Z,32.38
2022-08-19T15:15:48.654Z,32.62
2022-08-19T15:18:16.013Z,32.79
2022-08-19T15:20:46.697Z,32.42
2022-08-19T15:23:18.523Z,32.41
2022-08-19T15:25:46.375Z,32.70
2022-08-19T15:28:13.695Z,32.80
2022-08-19T15:30:41.828Z,32.57
2022-08-19T15:33:09.123Z,32.94
2022-08-19T15:35:36.186Z,32.49
2022-08-19T15:38:03.238Z,32.46
2022-08-19T15:40:30.170Z,32.83
2022-08-19T15:42:58.706Z,32.80
2022-08-19T15:45:32.482Z,32.74
2022-08-19T15:48:01.429Z,32.73
2022-08-19T15:50:31.810Z,32.58
2022-08-19T15:53:04.488Z,32.65
2022-08-19T15:55:36.618Z,32.60
2022-08-19T15:58:29.936Z,32.95
2022-08-19T16:01:20.767Z,32.38
2022-08-19T16:04:14.227Z,32.71
2022-08-19T16:06:55.777Z,33.09
2022-08-19T16:09:28.865Z,33.80
2022-08-19T16:12:02.492Z,33.74
2022-08-19T16:14:32.713Z,33.74
2022-08-19T16:16:59.848Z,33.72
2022-08-19T16:19:27.302Z,33.71
2022-08-19T16:21:56.917Z,33.88
2022-08-19T16:24:28.484Z,34.54
2022-08-19T16:26:56.549Z,34.48
2022-08-19T16:29:33.767Z,34.58
2022-08-19T16:32:03.505Z,34.59
2022-08-19T16:34:30.991Z,34.84
2022-08-19T16:36:58.034Z,34.16
2022-08-19T16:39:24.951Z,34.57
2022-08-19T16:41:51.819Z,34.37
2022-08-19T16:44:20.991Z,34.26
2022-08-19T16:46:58.444Z,34.61
2022-08-19T16:49:53.620Z,34.74
2022-08-19T16:52:16.137Z,34.55
2022-08-19T16:54:43.500Z,34.72
2022-08-19T16:57:12.354Z,35.30
2022-08-19T16:59:45.013Z,35.85
2022-08-19T17:02:22.517Z,36.48
2022-08-19T17:04:57.528Z,36.34
2022-08-19T17:07:33.459Z,36.23
2022-08-19T17:10:02.391Z,35.79
2022-08-19T17:12:30.715Z,35.87
2022-08-19T17:15:01.459Z,36.17
2022-08-19T17:17:30.650Z,35.95
2022-08-19T17:20:02.688Z,36.58
2022-08-19T17:22:29.866Z,36.76
2022-08-19T17:24:58.024Z,37.28
2022-08-19T17:27:27.139Z,37.14
2022-08-19T17:29:59.875Z,37.58
2022-08-19T17:32:27.259Z,38.42
2022-08-19T17:34:54.357Z,38.37
2022-08-19T17:37:22.972Z,38.47
2022-08-19T17:39:49.880Z,38.59
2022-08-19T17:42:16.835Z,38.56
2022-08-19T17:44:44.771Z,38.55
2022-08-19T17:47:17.197Z,38.14
2022-08-19T17:49:44.066Z,38.13
2022-08-19T17:52:11.872Z,38.87
2022-08-19T17:54:38.800Z,38.42
2022-08-19T17:57:05.816Z,39.09
2022-08-19T17:59:32.777Z,38.45
2022-08-19T18:01:59.768Z,39.11
2022-08-19T18:04:27.407Z,38.57
2022-08-19T18:06:55.820Z,38.50
2022-08-19T18:09:28.719Z,39.11
2022-08-19T18:12:06.385Z,39.06
2022-08-19T18:14:37.495Z,40.14
2022-08-19T18:17:10.187Z,39.71
2022-08-19T18:19:43.718Z,39.98
2022-08-19T18:22:31.489Z,40.51
2022-08-19T18:24:59.250Z,39.88
2022-08-19T18:27:28.080Z,40.23
2022-08-19T18:29:59.437Z,40.62
2022-08-19T18:32:36.579Z,40.34
2022-08-19T18:35:11.823Z,41.19
2022-08-19T18:37:43.097Z,40.73
2022-08-19T18:40:33.637Z,41.34
2022-08-19T18:43:23.621Z,41.43
2022-08-19T18:46:09.932Z,41.14
2022-08-19T18:48:56.854Z,41.12
2022-08-19T18:51:28.146Z,41.25
2022-08-19T18:53:57.215Z,41.20
2022-08-19T18:56:29.141Z,41.65
2022-08-19T18:58:58.775Z,41.05
2022-08-19T19:01:31.935Z,40.85
2022-08-19T19:04:04.101Z,40.89
2022-08-19T19:06:37.936Z,41.13
2022-08-19T19:09:16.330Z,41.35
2022-08-19T19:11:48.277Z,41.66
2022-08-19T19:14:47.603Z,41.35
2022-08-19T19:17:14.825Z,41.46
2022-08-19T19:19:43.891Z,41.95
2022-08-19T19:22:14.413Z,41.93
2022-08-19T19:24:44.949Z,41.65
2022-08-19T19:27:15.571Z,41.80
2022-08-19T19:29:42.964Z,41.77
2022-08-19T19:32:27.001Z,41.78
2022-08-19T19:34:53.975Z,42.35
2022-08-19T19:37:22.399Z,42.66
2022-08-19T19:39:49.409Z,42.20
2022-08-19T19:42:21.660Z,42.43
2022-08-19T19:44:55.191Z,43.12
2022-08-19T19:47:27.875Z,42.64
2022-08-19T19:52:45.616Z,43.14
2022-08-19T19:55:17.719Z,43.38
2022-08-19T19:57:48.862Z,43.24
2022-08-19T20:00:18.782Z,43.18
2022-08-19T20:02:49.817Z,42.98
2022-08-19T20:05:21.065Z,43.02
2022-08-19T20:08:08.246Z,43.00
2022-08-19T20:10:35.873Z,43.01
2022-08-19T20:13:04.406Z,43.17
2022-08-19T20:15:32.204Z,43.27
2022-08-19T20:18:00.845Z,43.44
2022-08-19T20:20:27.910Z,43.30
2022-08-19T20:22:55.071Z,43.59
2022-08-19T20:25:22.366Z,43.78
2022-08-19T20:27:49.848Z,44.00
2022-08-19T20:30:21.080Z,44.09
2022-08-19T20:32:49.394Z,43.88
2022-08-19T20:35:20.658Z,43.85
2022-08-19T20:37:48.045Z,43.94
2022-08-19T20:40:16.318Z,43.95
2022-08-19T20:42:47.562Z,43.88
2022-08-19T20:45:29.423Z,43.88
2022-08-19T20:48:03.110Z,44.26
2022-08-19T20:50:32.961Z,44.43
2022-08-19T20:53:01.774Z,44.29
2022-08-19T20:55:30.385Z,44.36
2022-08-19T20:57:58.577Z,44.92
2022-08-19T21:00:25.518Z,44.35
2022-08-19T21:02:52.390Z,44.78
2022-08-19T21:05:19.497Z,44.78
2022-08-19T21:07:46.545Z,44.61
2022-08-19T21:10:13.520Z,44.92
2022-08-19T21:12:41.926Z,45.04
2022-08-19T21:15:09.339Z,45.29
2022-08-19T21:17:36.190Z,45.22
2022-08-19T21:20:05.816Z,44.91
2022-08-19T21:22:32.698Z,45.28
2022-08-19T21:24:59.544Z,46.10
2022-08-19T21:27:26.385Z,45.90
2022-08-19T21:29:54.823Z,46.10
2022-08-19T21:32:23.571Z,46.19
2022-08-19T21:34:52.625Z,46.59
2022-08-19T21:37:24.931Z,46.79
2022-08-19T21:39:54.172Z,47.22
2022-08-19T21:42:23.096Z,46.82
2022-08-19T21:44:49.941Z,47.15
2022-08-19T21:47:16.918Z,47.25
2022-08-19T21:49:43.802Z,47.35
2022-08-19T21:52:10.788Z,47.33
2022-08-19T21:54:38.536Z,47.13
2022-08-19T21:57:10.484Z,47.16
2022-08-19T21:59:43.875Z,47.39
2022-08-19T22:02:20.827Z,47.74
2022-08-19T22:04:50.745Z,48.04
2022-08-19T22:07:19.391Z,48.79
2022-08-19T22:09:48.526Z,49.30
2022-08-19T22:12:32.675Z,49.24
2022-08-19T22:15:00.340Z,49.12
2022-08-19T22:17:27.620Z,49.19
2022-08-19T22:19:56.408Z,49.79
2022-08-19T22:22:30.732Z,50.06
2022-08-19T22:25:30.217Z,50.02
2022-08-19T22:28:06.252Z,50.15
2022-08-19T22:30:34.901Z,50.35
2022-08-19T22:33:06.564Z,50.43
2022-08-19T22:35:37.944Z,50.51
2022-08-19T22:38:07.463Z,51.00
2022-08-19T22:40:39.650Z,51.15
2022-08-19T22:43:22.174Z,51.53
2022-08-19T22:45:51.078Z,51.27
2022-08-19T22:48:21.064Z,51.68
2022-08-19T22:51:08.377Z,52.21
2022-08-19T22:53:39.499Z,52.61
2022-08-19T22:56:14.474Z,52.27
2022-08-19T22:58:42.389Z,52.37
2022-08-19T23:01:16.312Z,52.24
2022-08-19T23:03:56.282Z,52.45
2022-08-19T23:06:23.324Z,52.74
2022-08-19T23:08:53.728Z,52.42
2022-08-19T23:11:21.260Z,52.36
2022-08-19T23:13:48.161Z,52.64
2022-08-19T23:16:15.155Z,52.79
2022-08-19T23:18:42.025Z,52.84
2022-08-19T23:21:09.525Z,52.74
2022-08-19T23:23:37.606Z,53.32
2022-08-19T23:26:06.488Z,53.54
2022-08-19T23:28:57.774Z,52.64
2022-08-19T23:31:26.656Z,53.41
2022-08-19T23:33:53.551Z,53.29
2022-08-19T23:36:21.595Z,53.47
2022-08-19T23:38:51.914Z,54.10
2022-08-19T23:41:22.091Z,54.37
2022-08-19T23:43:51.414Z,54.01
2022-08-19T23:46:27.637Z,53.84
2022-08-19T23:48:56.940Z,54.27
2022-08-19T23:51:24.530Z,54.84
2022-08-19T23:53:51.437Z,55.18
2022-08-19T23:56:18.320Z,55.16
2022-08-19T23:58:49.001Z,55.32
